createdAt,value
2018-09-15T00:01:10.660Z,4.07
2018-09-15T00:03:41.414Z,4.17
2018-09-15T00:06:09.414Z,3.83
2018-09-15T00:08:37.247Z,3.53
2018-09-15T00:11:04.945Z,3.97
2018-09-15T00:13:32.886Z,3.97
2018-09-15T00:16:01.036Z,3.70
2018-09-15T00:18:28.767Z,4.47
2018-09-15T00:20:56.451Z,4.03
2018-09-15T00:23:24.127Z,4.37
2018-09-15T00:25:52.310Z,3.80
2018-09-15T00:28:20.044Z,3.67
2018-09-15T00:30:48.446Z,4.30
2018-09-15T00:33:17.053Z,3.80
2018-09-15T00:35:44.796Z,3.60
2018-09-15T00:38:12.603Z,4.20
2018-09-15T00:40:41.335Z,3.73
2018-09-15T00:43:09.236Z,4.23
2018-09-15T00:45:37.087Z,4.30
2018-09-15T00:48:04.931Z,4.13
2018-09-15T00:50:33.509Z,4.00
2018-09-15T00:53:01.503Z,4.50
2018-09-15T00:55:29.234Z,4.10
2018-09-15T00:57:57.549Z,3.80
2018-09-15T01:00:25.573Z,4.40
2018-09-15T01:02:53.591Z,3.43
2018-09-15T01:05:22.007Z,4.10
2018-09-15T01:07:49.827Z,4.00
2018-09-15T01:10:17.663Z,4.00
2018-09-15T01:12:46.556Z,4.43
2018-09-15T01:15:14.529Z,3.57
2018-09-15T01:17:42.276Z,4.67
2018-09-15T01:20:10.260Z,4.00
2018-09-15T01:22:37.989Z,4.00
2018-09-15T01:25:05.802Z,4.17
2018-09-15T01:27:33.716Z,4.43
2018-09-15T01:30:02.196Z,4.37
2018-09-15T01:32:29.927Z,4.80
2018-09-15T01:34:57.921Z,4.50
2018-09-15T01:37:25.762Z,3.83
2018-09-15T01:39:53.472Z,4.33
2018-09-15T01:42:21.192Z,4.87
2018-09-15T01:44:49.335Z,4.07
2018-09-15T01:47:17.030Z,4.23
2018-09-15T01:49:44.788Z,3.73
2018-09-15T01:52:12.699Z,3.90
2018-09-15T01:54:40.527Z,5.70
2018-09-15T01:57:08.388Z,4.03
2018-09-15T01:59:36.497Z,4.37
2018-09-15T02:02:04.446Z,4.17
2018-09-15T02:04:32.224Z,4.20
2018-09-15T02:06:59.920Z,4.67
2018-09-15T02:09:27.751Z,4.00
2018-09-15T02:11:55.446Z,4.17
2018-09-15T02:14:23.127Z,4.37
2018-09-15T02:16:50.996Z,4.07
2018-09-15T02:19:18.760Z,4.17
2018-09-15T02:21:46.947Z,4.13
2018-09-15T02:24:14.856Z,4.43
2018-09-15T02:26:43.691Z,4.50
2018-09-15T02:29:12.159Z,3.77
2018-09-15T02:31:39.784Z,4.20
2018-09-15T02:34:08.188Z,4.03
2018-09-15T02:36:35.914Z,4.60
2018-09-15T02:39:06.040Z,4.00
2018-09-15T02:41:33.819Z,4.70
2018-09-15T02:44:01.476Z,5.20
2018-09-15T02:46:29.360Z,5.00
2018-09-15T02:48:58.344Z,5.07
2018-09-15T02:51:30.637Z,5.30
2018-09-15T02:54:02.128Z,4.67
2018-09-15T02:56:31.048Z,5.07
2018-09-15T02:58:58.640Z,4.77
2018-09-15T03:01:26.353Z,4.90
2018-09-15T03:03:54.027Z,5.00
2018-09-15T03:06:23.084Z,4.93
2018-09-15T03:08:50.949Z,5.27
2018-09-15T03:11:18.751Z,5.67
2018-09-15T03:13:46.824Z,6.17
2018-09-15T03:16:15.660Z,4.90
2018-09-15T03:18:43.376Z,6.30
2018-09-15T03:21:11.071Z,6.00
2018-09-15T03:23:39.269Z,5.57
2018-09-15T03:26:09.068Z,5.70
2018-09-15T03:28:36.972Z,4.80
2018-09-15T03:31:04.707Z,6.00
2018-09-15T03:33:32.735Z,5.60
2018-09-15T03:36:02.157Z,5.57
2018-09-15T03:38:31.847Z,5.60
2018-09-15T03:40:59.487Z,5.43
2018-09-15T03:43:27.063Z,6.43
2018-09-15T03:45:54.740Z,5.93
2018-09-15T03:48:22.781Z,5.13
2018-09-15T03:50:50.560Z,6.27
2018-09-15T03:53:19.141Z,5.77
2018-09-15T03:55:46.806Z,5.73
2018-09-15T03:58:14.663Z,6.00
2018-09-15T04:00:42.442Z,6.27
2018-09-15T04:03:12.940Z,5.40
2018-09-15T04:05:41.515Z,5.40
2018-09-15T04:08:09.227Z,5.63
2018-09-15T04:10:37.750Z,5.90
2018-09-15T04:13:06.191Z,5.93
2018-09-15T04:15:39.340Z,5.83
2018-09-15T04:20:52.944Z,6.13
2018-09-15T04:23:20.694Z,5.80
2018-09-15T04:25:48.435Z,6.40
2018-09-15T04:28:16.146Z,7.20
2018-09-15T04:30:43.891Z,6.57
2018-09-15T04:33:21.391Z,6.50
2018-09-15T04:35:50.326Z,6.50
2018-09-15T04:38:18.190Z,7.40
2018-09-15T04:40:46.012Z,7.10
2018-09-15T04:43:14.450Z,6.37
2018-09-15T04:45:42.341Z,6.53
2018-09-15T04:48:20.733Z,6.50
2018-09-15T04:50:48.386Z,6.67
2018-09-15T04:53:16.115Z,6.70
2018-09-15T04:55:43.945Z,7.17
2018-09-15T04:58:11.643Z,6.67
2018-09-15T05:00:39.468Z,7.00
2018-09-15T05:03:07.319Z,7.10
2018-09-15T05:05:35.385Z,6.70
2018-09-15T05:08:03.081Z,6.90
2018-09-15T05:10:30.881Z,6.77
2018-09-15T05:12:58.986Z,7.20
2018-09-15T05:15:26.627Z,8.10
2018-09-15T05:17:54.878Z,6.70
2018-09-15T05:20:22.764Z,7.00
2018-09-15T05:22:50.576Z,7.00
2018-09-15T05:25:18.291Z,7.23
2018-09-15T05:27:46.267Z,7.23
2018-09-15T05:30:13.957Z,7.00
2018-09-15T05:32:57.756Z,6.63
2018-09-15T05:35:25.732Z,7.43
2018-09-15T05:40:56.464Z,6.67
2018-09-15T05:43:27.671Z,6.10
2018-09-15T05:45:55.675Z,6.00
2018-09-15T05:48:23.548Z,6.33
2018-09-15T05:50:51.512Z,7.10
2018-09-15T05:53:25.750Z,6.67
2018-09-15T05:55:56.710Z,6.80
2018-09-15T05:58:24.835Z,6.53
2018-09-15T06:00:54.835Z,6.33
2018-09-15T06:03:34.277Z,6.73
2018-09-15T06:06:03.589Z,7.00
2018-09-15T06:11:24.990Z,6.40
2018-09-15T06:13:52.763Z,6.77
2018-09-15T06:16:20.642Z,7.63
2018-09-15T06:18:48.390Z,8.90
2018-09-15T06:21:16.623Z,8.10
2018-09-15T06:23:44.378Z,8.80
2018-09-15T06:26:37.352Z,8.23
2018-09-15T06:29:05.741Z,7.33
2018-09-15T06:31:33.438Z,7.93
2018-09-15T06:34:01.135Z,7.50
2018-09-15T06:36:28.962Z,7.77
2018-09-15T06:41:59.520Z,8.20
2018-09-15T06:44:27.395Z,8.87
2018-09-15T06:46:55.251Z,8.00
2018-09-15T06:50:04.679Z,6.90
2018-09-15T06:52:32.550Z,7.40
2018-09-15T06:55:00.640Z,7.43
2018-09-15T06:57:34.225Z,8.37
2018-09-15T07:00:11.270Z,7.40
2018-09-15T07:02:39.197Z,7.60
2018-09-15T07:05:13.789Z,7.17
2018-09-15T07:07:41.666Z,6.60
2018-09-15T07:10:09.329Z,6.40
2018-09-15T07:12:37.111Z,5.93
2018-09-15T07:15:04.969Z,6.00
2018-09-15T07:17:32.864Z,6.07
2018-09-15T07:20:00.875Z,6.00
2018-09-15T07:22:28.579Z,5.90
2018-09-15T07:24:56.583Z,5.57
2018-09-15T07:27:24.313Z,5.67
2018-09-15T07:29:52.035Z,5.83
2018-09-15T07:32:19.929Z,5.53
2018-09-15T07:35:04.082Z,5.67
2018-09-15T07:40:25.384Z,5.93
2018-09-15T07:43:03.024Z,5.17
2018-09-15T07:45:34.397Z,5.60
2018-09-15T07:48:25.761Z,5.50
2018-09-15T07:54:03.300Z,5.20
2018-09-15T07:56:32.483Z,7.13
2018-09-15T07:59:01.356Z,5.30
2018-09-15T08:01:29.200Z,5.57
2018-09-15T08:03:57.566Z,4.87
2018-09-15T08:06:25.174Z,4.80
2018-09-15T08:08:52.901Z,4.23
2018-09-15T08:11:20.594Z,4.20
2018-09-15T08:14:04.135Z,5.00
2018-09-15T08:16:32.035Z,5.90
2018-09-15T08:18:59.669Z,5.53
2018-09-15T08:21:27.844Z,4.80
2018-09-15T08:23:55.784Z,5.23
2018-09-15T08:26:23.511Z,6.00
2018-09-15T08:28:51.136Z,6.07
2018-09-15T08:31:18.918Z,5.90
2018-09-15T08:33:46.831Z,6.70
2018-09-15T08:36:15.712Z,5.27
2018-09-15T08:38:44.797Z,6.13
2018-09-15T08:41:12.673Z,6.00
2018-09-15T08:43:40.595Z,6.77
2018-09-15T08:46:08.358Z,4.57
2018-09-15T08:48:36.748Z,5.50
2018-09-15T08:54:08.013Z,5.37
2018-09-15T08:59:18.016Z,5.10
2018-09-15T09:01:46.151Z,5.60
2018-09-15T09:04:14.397Z,4.80
2018-09-15T09:07:02.767Z,5.23
2018-09-15T09:09:30.574Z,5.67
2018-09-15T09:11:58.840Z,4.80
2018-09-15T09:14:26.787Z,5.10
2018-09-15T09:16:55.010Z,4.73
2018-09-15T09:19:22.956Z,5.57
2018-09-15T09:22:07.404Z,6.60
2018-09-15T09:24:51.923Z,6.50
2018-09-15T09:27:22.039Z,5.13
2018-09-15T09:29:51.472Z,5.00
2018-09-15T09:32:21.494Z,4.57
2018-09-15T09:37:52.320Z,4.40
2018-09-15T09:40:21.793Z,3.43
2018-09-15T09:42:50.572Z,4.00
2018-09-15T09:45:20.579Z,3.17
2018-09-15T09:47:48.384Z,2.83
2018-09-15T09:50:18.797Z,3.37
2018-09-15T09:52:55.254Z,3.13
2018-09-15T09:55:37.189Z,2.67
2018-09-15T09:58:15.205Z,2.50
2018-09-15T10:00:48.554Z,2.80
2018-09-15T10:03:16.264Z,2.50
2018-09-15T10:05:44.160Z,2.17
2018-09-15T10:08:11.899Z,3.03
2018-09-15T10:13:22.269Z,2.80
2018-09-15T10:15:50.441Z,2.30
2018-09-15T10:18:18.291Z,1.97
2018-09-15T10:21:02.600Z,2.40
2018-09-15T10:23:30.326Z,1.83
2018-09-15T10:25:58.306Z,2.10
2018-09-15T10:28:26.000Z,2.23
2018-09-15T10:30:53.715Z,1.70
2018-09-15T10:33:22.061Z,1.90
2018-09-15T10:36:04.807Z,2.07
2018-09-15T10:38:32.868Z,2.00
2018-09-15T10:41:00.626Z,1.83
2018-09-15T10:43:28.659Z,1.80
2018-09-15T10:45:56.448Z,2.03
2018-09-15T10:48:24.161Z,1.80
2018-09-15T10:50:54.884Z,1.70
2018-09-15T10:53:28.318Z,1.60
2018-09-15T10:55:56.386Z,1.90
2018-09-15T10:58:32.556Z,2.07
2018-09-15T11:03:54.589Z,1.90
2018-09-15T11:06:33.915Z,1.97
2018-09-15T11:09:02.153Z,1.93
2018-09-15T11:11:32.780Z,1.90
2018-09-15T11:14:00.606Z,1.77
2018-09-15T11:16:51.082Z,2.00
2018-09-15T11:19:18.767Z,1.47
2018-09-15T11:22:05.534Z,1.73
2018-09-15T11:24:33.924Z,1.87
2018-09-15T11:30:01.999Z,1.40
2018-09-15T11:32:29.751Z,1.10
2018-09-15T11:35:13.784Z,1.23
2018-09-15T11:37:46.057Z,1.70
2018-09-15T11:40:13.771Z,1.73
2018-09-15T11:42:41.707Z,1.70
2018-09-15T11:45:09.567Z,1.73
2018-09-15T11:47:37.300Z,1.43
2018-09-15T11:55:52.563Z,1.40
2018-09-15T11:58:20.298Z,1.20
2018-09-15T12:00:55.367Z,1.63
2018-09-15T12:03:23.063Z,1.90
2018-09-15T12:05:50.967Z,1.80
2018-09-15T12:09:01.352Z,1.60
2018-09-15T12:14:34.206Z,1.10
2018-09-15T12:17:36.200Z,1.40
2018-09-15T12:20:06.760Z,1.83
2018-09-15T12:25:37.745Z,1.27
2018-09-15T12:28:05.501Z,1.20
2018-09-15T12:30:33.506Z,1.33
2018-09-15T12:33:01.595Z,1.10
2018-09-15T12:35:29.488Z,1.10
2018-09-15T12:37:58.197Z,0.97
2018-09-15T12:40:30.553Z,1.47
2018-09-15T12:42:59.756Z,2.10
2018-09-15T12:45:27.784Z,1.20
2018-09-15T12:47:59.120Z,1.17
2018-09-15T12:50:26.911Z,1.80
2018-09-15T12:52:54.699Z,1.57
2018-09-15T12:55:24.099Z,1.20
2018-09-15T12:58:02.996Z,1.30
2018-09-15T13:00:30.855Z,1.30
2018-09-15T13:02:59.627Z,1.47
2018-09-15T13:08:22.400Z,1.20
2018-09-15T13:10:50.472Z,2.90
2018-09-15T13:13:18.426Z,1.60
2018-09-15T13:15:47.494Z,1.07
2018-09-15T13:18:15.787Z,1.20
2018-09-15T13:20:43.887Z,0.90
2018-09-15T13:23:24.496Z,1.00
2018-09-15T13:26:10.404Z,1.00
2018-09-15T13:28:44.779Z,1.40
2018-09-15T13:31:29.535Z,1.30
2018-09-15T13:37:04.932Z,0.90
2018-09-15T13:42:36.302Z,1.30
2018-09-15T13:45:05.249Z,1.17
2018-09-15T13:50:36.025Z,1.10
2018-09-15T13:53:07.486Z,1.40
2018-09-15T14:07:36.357Z,1.00
2018-09-15T14:13:04.922Z,1.50
2018-09-15T14:15:33.880Z,1.60
2018-09-15T14:18:03.375Z,1.80
2018-09-15T14:20:31.532Z,1.27
2018-09-15T14:26:22.332Z,1.23
2018-09-15T14:29:08.381Z,1.30
2018-09-15T14:31:36.483Z,1.30
2018-09-15T14:34:07.188Z,1.30
2018-09-15T14:42:10.839Z,1.20
2018-09-15T14:47:44.237Z,1.60
2018-09-15T14:50:15.179Z,1.20
2018-09-15T14:52:43.347Z,1.10
2018-09-15T14:55:13.991Z,1.13
2018-09-15T14:57:41.861Z,1.27
2018-09-15T15:00:10.031Z,1.53
2018-09-15T15:05:46.382Z,1.53
2018-09-15T15:08:24.641Z,1.10
2018-09-15T15:10:56.751Z,1.53
2018-09-15T15:13:27.856Z,1.20
2018-09-15T15:15:56.419Z,1.00
2018-09-15T15:18:24.489Z,1.30
2018-09-15T15:20:57.474Z,0.90
2018-09-15T15:23:25.260Z,1.10
2018-09-15T15:25:53.947Z,1.43
2018-09-15T15:28:25.683Z,3.20
2018-09-15T15:30:54.138Z,1.70
2018-09-15T15:36:22.808Z,1.23
2018-09-15T15:38:51.686Z,1.30
2018-09-15T15:41:20.184Z,1.03
2018-09-15T15:43:50.863Z,1.30
2018-09-15T15:46:19.768Z,1.10
2018-09-15T15:48:50.449Z,1.40
2018-09-15T15:51:18.441Z,1.40
2018-09-15T15:53:46.595Z,1.40
2018-09-15T15:56:14.891Z,1.23
2018-09-15T15:58:45.674Z,1.20
2018-09-15T16:01:17.938Z,1.33
2018-09-15T16:03:49.518Z,1.03
2018-09-15T16:06:17.568Z,1.30
2018-09-15T16:08:45.658Z,1.10
2018-09-15T16:11:13.793Z,1.30
2018-09-15T16:13:41.798Z,1.03
2018-09-15T16:16:09.749Z,1.83
2018-09-15T16:18:37.785Z,2.17
2018-09-15T16:21:05.548Z,1.60
2018-09-15T16:23:33.315Z,1.30
2018-09-15T16:28:58.133Z,1.10
2018-09-15T16:31:27.270Z,1.30
2018-09-15T16:33:54.994Z,1.53
2018-09-15T16:36:22.838Z,1.50
2018-09-15T16:38:50.887Z,1.73
2018-09-15T16:41:18.620Z,1.30
2018-09-15T16:43:47.175Z,1.40
2018-09-15T16:46:14.963Z,1.50
2018-09-15T16:48:44.256Z,1.50
2018-09-15T16:51:12.230Z,1.40
2018-09-15T16:53:40.500Z,1.50
2018-09-15T16:56:12.966Z,1.33
2018-09-15T16:58:41.613Z,1.43
2018-09-15T17:01:09.448Z,1.10
2018-09-15T17:03:38.226Z,1.30
2018-09-15T17:06:08.191Z,1.50
2018-09-15T17:08:36.051Z,1.60
2018-09-15T17:11:04.265Z,1.57
2018-09-15T17:13:32.195Z,1.80
2018-09-15T17:15:59.946Z,1.40
2018-09-15T17:18:27.715Z,1.40
2018-09-15T17:20:57.184Z,1.40
2018-09-15T17:23:25.906Z,1.40
2018-09-15T17:25:53.731Z,1.50
2018-09-15T17:28:22.811Z,1.50
2018-09-15T17:30:51.988Z,1.60
2018-09-15T17:33:19.635Z,1.60
2018-09-15T17:35:48.120Z,1.70
2018-09-15T17:38:16.241Z,1.90
2018-09-15T17:40:45.231Z,1.67
2018-09-15T17:43:13.992Z,1.77
2018-09-15T17:45:42.890Z,1.63
2018-09-15T17:48:11.652Z,3.40
2018-09-15T17:50:39.525Z,4.20
2018-09-15T17:53:07.865Z,2.60
2018-09-15T17:55:35.672Z,2.07
2018-09-15T17:58:03.932Z,1.70
2018-09-15T18:00:35.167Z,2.00
2018-09-15T18:03:03.991Z,1.50
2018-09-15T18:05:35.670Z,2.03
2018-09-15T18:08:03.574Z,2.27
2018-09-15T18:10:31.275Z,1.90
2018-09-15T18:13:00.173Z,2.80
2018-09-15T18:15:27.995Z,10.83
2018-09-15T18:18:00.496Z,6.70
2018-09-15T18:20:28.209Z,5.60
2018-09-15T18:22:56.642Z,2.50
2018-09-15T18:25:25.495Z,2.07
2018-09-15T18:27:54.571Z,2.13
2018-09-15T18:30:22.351Z,1.90
2018-09-15T18:32:50.419Z,2.30
2018-09-15T18:38:20.880Z,4.37
2018-09-15T18:40:48.915Z,2.83
2018-09-15T18:46:20.254Z,2.40
2018-09-15T18:48:51.220Z,2.47
2018-09-15T18:51:22.721Z,2.10
2018-09-15T18:53:51.517Z,2.80
2018-09-15T18:56:22.132Z,2.13
2018-09-15T18:58:50.043Z,1.90
2018-09-15T19:01:18.835Z,2.57
2018-09-15T19:03:46.700Z,2.33
2018-09-15T19:06:16.703Z,2.10
2018-09-15T19:08:45.547Z,2.30
2018-09-15T19:11:13.567Z,2.27
2018-09-15T19:13:43.633Z,2.20
2018-09-15T19:16:11.733Z,3.57
2018-09-15T19:18:39.888Z,3.03
2018-09-15T19:25:52.887Z,2.87
2018-09-15T19:28:21.968Z,2.20
2018-09-15T19:30:50.532Z,3.00
2018-09-15T19:33:18.663Z,2.93
2018-09-15T19:35:46.524Z,1.77
2018-09-15T19:38:14.765Z,2.60
2018-09-15T19:43:36.273Z,2.67
2018-09-15T19:46:04.884Z,2.30
2018-09-15T19:48:34.038Z,2.47
2018-09-15T19:51:01.720Z,8.73
2018-09-15T19:53:31.934Z,2.13
2018-09-15T19:55:59.720Z,2.70
2018-09-15T19:58:27.808Z,2.50
2018-09-15T20:00:56.592Z,3.00
2018-09-15T20:03:25.686Z,2.70
2018-09-15T20:05:53.700Z,2.63
2018-09-15T20:08:21.389Z,2.90
2018-09-15T20:10:50.094Z,4.03
2018-09-15T20:13:18.204Z,3.53
2018-09-15T20:15:47.068Z,3.60
2018-09-15T20:18:15.113Z,3.60
2018-09-15T20:20:41.923Z,3.60
2018-09-15T20:23:10.522Z,3.50
2018-09-15T20:31:40.569Z,4.20
2018-09-15T20:34:09.365Z,3.10
2018-09-15T20:36:39.237Z,3.23
2018-09-15T20:39:08.928Z,3.33
2018-09-15T20:41:36.997Z,3.60
2018-09-15T20:44:04.884Z,4.20
2018-09-15T20:46:32.844Z,5.27
2018-09-15T20:49:00.572Z,4.50
2018-09-15T20:51:29.837Z,5.13
2018-09-15T20:53:58.098Z,5.10
2018-09-15T20:56:26.389Z,4.10
2018-09-15T20:58:54.641Z,4.50
2018-09-15T21:01:22.746Z,3.70
2018-09-15T21:03:51.322Z,3.80
2018-09-15T21:06:20.024Z,3.40
2018-09-15T21:08:49.496Z,3.43
2018-09-15T21:11:18.225Z,3.23
2018-09-15T21:13:48.948Z,3.70
2018-09-15T21:16:34.856Z,3.20
2018-09-15T21:19:07.503Z,3.30
2018-09-15T21:21:35.904Z,3.70
2018-09-15T21:24:09.623Z,4.07
2018-09-15T21:26:37.335Z,4.17
2018-09-15T21:29:05.028Z,4.23
2018-09-15T21:31:38.703Z,4.00
2018-09-15T21:34:10.442Z,4.27
2018-09-15T21:39:32.271Z,4.33
2018-09-15T21:42:01.621Z,4.87
2018-09-15T21:44:31.479Z,4.90
2018-09-15T21:46:59.304Z,4.80
2018-09-15T21:49:38.521Z,4.77
2018-09-15T21:52:06.340Z,5.30
2018-09-15T21:54:40.963Z,6.67
2018-09-15T21:57:08.831Z,4.90
2018-09-15T21:59:41.640Z,4.93
2018-09-15T22:02:22.031Z,5.97
2018-09-15T22:04:53.005Z,5.43
2018-09-15T22:07:20.733Z,6.20
2018-09-15T22:10:00.353Z,5.70
2018-09-15T22:12:28.271Z,5.53
2018-09-15T22:14:56.000Z,5.10
2018-09-15T22:17:23.652Z,6.93
2018-09-15T22:22:37.674Z,6.17
2018-09-15T22:25:06.505Z,4.70
2018-09-15T22:27:34.191Z,6.20
2018-09-15T22:30:01.919Z,6.30
2018-09-15T22:32:29.901Z,4.87
2018-09-15T22:34:57.862Z,4.23
2018-09-15T22:37:26.110Z,4.40
2018-09-15T22:39:54.102Z,4.53
2018-09-15T22:42:23.446Z,3.80
2018-09-15T22:44:56.406Z,4.73
2018-09-15T22:47:24.220Z,5.00
2018-09-15T22:49:51.992Z,4.30
2018-09-15T22:52:21.280Z,3.87
2018-09-15T22:54:49.053Z,4.20
2018-09-15T22:57:17.127Z,4.03
2018-09-15T23:02:48.821Z,4.20
2018-09-15T23:05:17.235Z,4.00
2018-09-15T23:08:01.339Z,4.77
2018-09-15T23:10:29.544Z,5.10
2018-09-15T23:12:57.270Z,3.50
2018-09-15T23:15:25.005Z,3.63
2018-09-15T23:17:53.477Z,3.90
2018-09-15T23:20:21.951Z,4.17
2018-09-15T23:22:49.678Z,5.47
2018-09-15T23:25:17.425Z,4.27
2018-09-15T23:27:45.220Z,3.90
2018-09-15T23:30:12.953Z,3.57
2018-09-15T23:32:41.866Z,4.00
2018-09-15T23:37:55.342Z,3.37
2018-09-15T23:40:23.039Z,4.00
2018-09-15T23:42:50.767Z,3.80
2018-09-15T23:45:18.979Z,3.13
2018-09-15T23:48:09.116Z,3.23
2018-09-15T23:50:36.836Z,3.83
2018-09-15T23:53:06.459Z,4.00
2018-09-15T23:55:41.378Z,3.20
2018-09-15T23:58:13.090Z,3.10
